This is the latest recevied weather packets stored in our database for station/object G4RHR. If no packets are shown the sender has not sent any weather packets the latest 10 day(s).
| Time | Temp. | Humidity | Pressure | Rain* | Wind** | Luminosity | Snow |
|---|---|---|---|---|---|---|---|
| 1777691880 | 13.33° C | 91% | 1015.9 hPa | 0 mm | - | - | - |
| 1777688100 | 14.44° C | 90% | 1016.3 hPa | 0 mm | - | - | - |
| 1777687152 | 14.44° C | 90% | 1016.4 hPa | 0 mm | - | - | - |
| 1777680133 | 15.56° C | 86% | 1017.7 hPa | 0 mm | - | - | - |
| 1777679461 | 15.56° C | 85% | 1017.6 hPa | 0 mm | - | - | - |
| 1777677305 | 16.11° C | 86% | 1017.8 hPa | 0 mm | - | - | - |
| 1777675140 | 15° C | 87% | 1017.7 hPa | 0 mm | - | - | - |
| 1777674062 | 14.44° C | 87% | 1017.7 hPa | 0 mm | - | - | - |
| 1777666502 | 13.89° C | 79% | 1017.9 hPa | 0 mm | - | - | - |
| 1777660568 | 16.11° C | 62% | 1017.8 hPa | 0 mm | - | - | - |
| 1777660020 | 16.67° C | 60% | 1017.9 hPa | 0 mm | - | - | - |
| 1777657321 | 18.33° C | 51% | 1017.8 hPa | 0 mm | - | - | - |
| 1777654080 | 20° C | 45% | 1018.2 hPa | 0 mm | - | - | - |
| 1777652463 | 20° C | 45% | 1018.3 hPa | 0 mm | - | - | - |
| 1777650974 | 20° C | 44% | 1018.7 hPa | 0 mm | - | - | - |
| 1777648148 | 19.44° C | 44% | 1018.9 hPa | 0 mm | - | - | - |
| 1777644903 | 20° C | 44% | 1019.5 hPa | 0 mm | - | - | - |
| 1777638423 | 19.44° C | 49% | 1020 hPa | 0 mm | - | - | - |
| 1777635855 | 19.44° C | 48% | 1020.2 hPa | 0 mm | - | - | - |
| 1777634104 | 18.33° C | 51% | 1020.4 hPa | 0 mm | - | - | - |
| 1777627622 | 17.22° C | 51% | 1021.1 hPa | 0 mm | - | - | - |
| 1777624921 | 16.67° C | 54% | 1021.1 hPa | 0 mm | - | - | - |
| 1777622221 | 15.56° C | 58% | 1021.1 hPa | 0 mm | - | - | - |
| 1777621811 | 15.56° C | 59% | 1020.9 hPa | 0 mm | - | - | - |
| 1777618980 | 14.44° C | 63% | 1020.9 hPa | 0 mm | - | - | - |
* Rain latest hour (hover to see other rain measurements)
** Current wind speed in m/s (hover to see current wind gust speed)